sensor_id;sensor_type;location;lat;lon;timestamp;temperature;humidity
17200;DHT22;8716;52.268;20.968;2023-12-22T00:00:57;6.40;99.90
17200;DHT22;8716;52.268;20.968;2023-12-22T00:03:25;6.50;99.90
17200;DHT22;8716;52.268;20.968;2023-12-22T00:05:54;6.50;99.90
17200;DHT22;8716;52.268;20.968;2023-12-22T00:08:22;6.50;99.90
17200;DHT22;8716;52.268;20.968;2023-12-22T00:10:51;6.50;99.90
17200;DHT22;8716;52.268;20.968;2023-12-22T00:13:19;6.40;99.90
17200;DHT22;8716;52.268;20.968;2023-12-22T00:15:48;6.40;99.90
17200;DHT22;8716;52.268;20.968;2023-12-22T00:18:17;6.40;99.90
17200;DHT22;8716;52.268;20.968;2023-12-22T00:20:46;6.40;99.90
17200;DHT22;8716;52.268;20.968;2023-12-22T00:23:14;6.40;99.90
17200;DHT22;8716;52.268;20.968;2023-12-22T00:25:42;6.40;99.90
17200;DHT22;8716;52.268;20.968;2023-12-22T00:28:12;6.40;99.90
17200;DHT22;8716;52.268;20.968;2023-12-22T00:30:40;6.40;99.90
17200;DHT22;8716;52.268;20.968;2023-12-22T00:33:10;6.40;99.90
17200;DHT22;8716;52.268;20.968;2023-12-22T00:35:40;6.30;99.90
17200;DHT22;8716;52.268;20.968;2023-12-22T00:38:08;6.30;99.90
17200;DHT22;8716;52.268;20.968;2023-12-22T00:40:39;6.30;99.90
17200;DHT22;8716;52.268;20.968;2023-12-22T00:43:07;6.20;99.90
17200;DHT22;8716;52.268;20.968;2023-12-22T00:45:36;6.30;99.90
17200;DHT22;8716;52.268;20.968;2023-12-22T00:48:04;6.20;99.90
17200;DHT22;8716;52.268;20.968;2023-12-22T00:50:33;6.20;99.90
17200;DHT22;8716;52.268;20.968;2023-12-22T00:53:03;6.20;99.90
17200;DHT22;8716;52.268;20.968;2023-12-22T00:55:31;6.20;99.90
17200;DHT22;8716;52.268;20.968;2023-12-22T00:57:59;6.20;99.90
17200;DHT22;8716;52.268;20.968;2023-12-22T01:00:27;6.10;99.90
17200;DHT22;8716;52.268;20.968;2023-12-22T01:02:56;6.10;99.90
17200;DHT22;8716;52.268;20.968;2023-12-22T01:05:24;6.30;99.90
17200;DHT22;8716;52.268;20.968;2023-12-22T01:07:53;6.10;99.90
17200;DHT22;8716;52.268;20.968;2023-12-22T01:10:23;6.10;99.90
17200;DHT22;8716;52.268;20.968;2023-12-22T01:12:51;6.10;99.90
17200;DHT22;8716;52.268;20.968;2023-12-22T01:15:19;6.00;99.90
17200;DHT22;8716;52.268;20.968;2023-12-22T01:17:47;6.00;99.90
17200;DHT22;8716;52.268;20.968;2023-12-22T01:20:16;6.00;99.90
17200;DHT22;8716;52.268;20.968;2023-12-22T01:22:44;6.00;99.90
17200;DHT22;8716;52.268;20.968;2023-12-22T01:25:14;6.00;99.90
17200;DHT22;8716;52.268;20.968;2023-12-22T01:27:44;6.00;99.90
17200;DHT22;8716;52.268;20.968;2023-12-22T01:30:14;5.90;99.90
17200;DHT22;8716;52.268;20.968;2023-12-22T01:32:44;5.90;99.90
17200;DHT22;8716;52.268;20.968;2023-12-22T01:35:15;5.90;99.90
17200;DHT22;8716;52.268;20.968;2023-12-22T01:37:44;5.90;99.90
17200;DHT22;8716;52.268;20.968;2023-12-22T01:40:14;6.00;99.90
17200;DHT22;8716;52.268;20.968;2023-12-22T01:42:46;5.90;99.90
17200;DHT22;8716;52.268;20.968;2023-12-22T01:45:15;6.00;99.90
17200;DHT22;8716;52.268;20.968;2023-12-22T01:47:44;5.90;99.90
17200;DHT22;8716;52.268;20.968;2023-12-22T01:50:15;6.00;99.90
17200;DHT22;8716;52.268;20.968;2023-12-22T01:52:44;5.90;99.90
17200;DHT22;8716;52.268;20.968;2023-12-22T01:55:14;5.90;99.90
17200;DHT22;8716;52.268;20.968;2023-12-22T01:57:46;5.90;99.90
17200;DHT22;8716;52.268;20.968;2023-12-22T02:00:18;6.00;99.90
17200;DHT22;8716;52.268;20.968;2023-12-22T02:02:47;6.00;99.90
17200;DHT22;8716;52.268;20.968;2023-12-22T02:05:15;6.10;99.90
17200;DHT22;8716;52.268;20.968;2023-12-22T02:07:45;6.00;99.90
17200;DHT22;8716;52.268;20.968;2023-12-22T02:10:14;6.00;99.90
17200;DHT22;8716;52.268;20.968;2023-12-22T02:12:45;6.00;99.90
17200;DHT22;8716;52.268;20.968;2023-12-22T02:15:13;6.00;99.90
17200;DHT22;8716;52.268;20.968;2023-12-22T02:17:46;6.00;99.90
17200;DHT22;8716;52.268;20.968;2023-12-22T02:20:17;6.00;99.90
17200;DHT22;8716;52.268;20.968;2023-12-22T02:22:51;6.00;99.90
17200;DHT22;8716;52.268;20.968;2023-12-22T02:25:20;6.00;99.90
17200;DHT22;8716;52.268;20.968;2023-12-22T02:27:49;6.00;99.90
17200;DHT22;8716;52.268;20.968;2023-12-22T02:30:23;6.00;99.90
17200;DHT22;8716;52.268;20.968;2023-12-22T02:32:56;6.00;99.90
17200;DHT22;8716;52.268;20.968;2023-12-22T02:35:32;6.00;99.90
17200;DHT22;8716;52.268;20.968;2023-12-22T02:38:04;6.00;99.90
17200;DHT22;8716;52.268;20.968;2023-12-22T02:40:34;6.00;99.90
17200;DHT22;8716;52.268;20.968;2023-12-22T02:43:04;6.00;99.90
17200;DHT22;8716;52.268;20.968;2023-12-22T02:45:33;6.00;99.90
17200;DHT22;8716;52.268;20.968;2023-12-22T02:48:01;6.10;99.90
17200;DHT22;8716;52.268;20.968;2023-12-22T02:50:30;6.00;99.90
17200;DHT22;8716;52.268;20.968;2023-12-22T02:52:58;6.00;99.90
17200;DHT22;8716;52.268;20.968;2023-12-22T02:55:28;6.10;99.90
17200;DHT22;8716;52.268;20.968;2023-12-22T02:57:58;6.10;99.90
17200;DHT22;8716;52.268;20.968;2023-12-22T03:00:26;6.10;99.90
17200;DHT22;8716;52.268;20.968;2023-12-22T03:02:55;6.00;99.90
17200;DHT22;8716;52.268;20.968;2023-12-22T03:05:26;6.10;99.90
17200;DHT22;8716;52.268;20.968;2023-12-22T03:07:54;6.10;99.90
17200;DHT22;8716;52.268;20.968;2023-12-22T03:10:22;6.10;99.90
17200;DHT22;8716;52.268;20.968;2023-12-22T03:12:52;6.20;99.90
17200;DHT22;8716;52.268;20.968;2023-12-22T03:15:19;6.30;99.90
17200;DHT22;8716;52.268;20.968;2023-12-22T03:17:48;6.10;99.90
17200;DHT22;8716;52.268;20.968;2023-12-22T03:20:17;6.20;99.90
17200;DHT22;8716;52.268;20.968;2023-12-22T03:22:46;6.20;99.90
17200;DHT22;8716;52.268;20.968;2023-12-22T03:25:17;6.10;99.90
17200;DHT22;8716;52.268;20.968;2023-12-22T03:27:47;6.10;99.90
17200;DHT22;8716;52.268;20.968;2023-12-22T03:30:19;6.00;99.90
17200;DHT22;8716;52.268;20.968;2023-12-22T03:32:48;5.90;99.90
17200;DHT22;8716;52.268;20.968;2023-12-22T03:35:16;5.90;99.90
17200;DHT22;8716;52.268;20.968;2023-12-22T03:37:44;5.80;99.90
17200;DHT22;8716;52.268;20.968;2023-12-22T03:40:15;5.90;99.90
17200;DHT22;8716;52.268;20.968;2023-12-22T03:42:57;5.80;99.90
17200;DHT22;8716;52.268;20.968;2023-12-22T03:45:27;5.70;99.90
17200;DHT22;8716;52.268;20.968;2023-12-22T03:47:56;5.80;99.90
17200;DHT22;8716;52.268;20.968;2023-12-22T03:50:24;5.70;99.90
17200;DHT22;8716;52.268;20.968;2023-12-22T03:52:52;5.90;99.90
17200;DHT22;8716;52.268;20.968;2023-12-22T03:55:21;5.70;99.90
17200;DHT22;8716;52.268;20.968;2023-12-22T03:57:49;5.80;99.90
17200;DHT22;8716;52.268;20.968;2023-12-22T04:00:19;5.80;99.90
17200;DHT22;8716;52.268;20.968;2023-12-22T04:02:49;5.70;99.90
17200;DHT22;8716;52.268;20.968;2023-12-22T04:05:17;5.80;99.90
17200;DHT22;8716;52.268;20.968;2023-12-22T04:07:46;5.70;99.90
17200;DHT22;8716;52.268;20.968;2023-12-22T04:10:16;5.70;99.90
17200;DHT22;8716;52.268;20.968;2023-12-22T04:12:45;5.60;99.90
17200;DHT22;8716;52.268;20.968;2023-12-22T04:15:16;5.70;99.90
17200;DHT22;8716;52.268;20.968;2023-12-22T04:17:44;5.60;99.90
17200;DHT22;8716;52.268;20.968;2023-12-22T04:20:14;5.60;99.90
17200;DHT22;8716;52.268;20.968;2023-12-22T04:22:43;5.40;99.90
17200;DHT22;8716;52.268;20.968;2023-12-22T04:25:11;5.60;99.90
17200;DHT22;8716;52.268;20.968;2023-12-22T04:27:39;5.70;99.90
17200;DHT22;8716;52.268;20.968;2023-12-22T04:30:12;5.60;99.90
17200;DHT22;8716;52.268;20.968;2023-12-22T04:32:40;5.60;99.90
17200;DHT22;8716;52.268;20.968;2023-12-22T04:35:08;5.70;99.90
17200;DHT22;8716;52.268;20.968;2023-12-22T04:37:38;5.70;99.90
17200;DHT22;8716;52.268;20.968;2023-12-22T04:40:07;5.70;99.90
17200;DHT22;8716;52.268;20.968;2023-12-22T04:42:36;5.70;99.90
17200;DHT22;8716;52.268;20.968;2023-12-22T04:45:04;5.70;99.90
17200;DHT22;8716;52.268;20.968;2023-12-22T04:47:33;5.70;99.90
17200;DHT22;8716;52.268;20.968;2023-12-22T04:50:01;5.70;99.90
17200;DHT22;8716;52.268;20.968;2023-12-22T04:52:29;5.80;99.90
17200;DHT22;8716;52.268;20.968;2023-12-22T04:54:59;5.70;99.90
17200;DHT22;8716;52.268;20.968;2023-12-22T04:57:27;5.70;99.90
17200;DHT22;8716;52.268;20.968;2023-12-22T04:59:55;5.70;99.90
17200;DHT22;8716;52.268;20.968;2023-12-22T05:02:24;5.60;99.90
17200;DHT22;8716;52.268;20.968;2023-12-22T05:04:52;5.60;99.90
17200;DHT22;8716;52.268;20.968;2023-12-22T05:07:21;5.60;99.90
17200;DHT22;8716;52.268;20.968;2023-12-22T05:09:51;5.40;99.90
17200;DHT22;8716;52.268;20.968;2023-12-22T05:12:23;5.50;99.90
17200;DHT22;8716;52.268;20.968;2023-12-22T05:14:51;5.50;99.90
17200;DHT22;8716;52.268;20.968;2023-12-22T05:17:20;5.40;99.90
17200;DHT22;8716;52.268;20.968;2023-12-22T05:19:49;5.50;99.90
17200;DHT22;8716;52.268;20.968;2023-12-22T05:22:17;5.50;99.90
17200;DHT22;8716;52.268;20.968;2023-12-22T05:24:48;5.50;99.90
17200;DHT22;8716;52.268;20.968;2023-12-22T05:27:16;5.40;99.90
17200;DHT22;8716;52.268;20.968;2023-12-22T05:29:48;5.40;99.90
17200;DHT22;8716;52.268;20.968;2023-12-22T05:32:16;5.40;99.90
17200;DHT22;8716;52.268;20.968;2023-12-22T05:34:44;5.50;99.90
17200;DHT22;8716;52.268;20.968;2023-12-22T05:37:13;5.40;99.90
17200;DHT22;8716;52.268;20.968;2023-12-22T05:39:41;5.40;99.90
17200;DHT22;8716;52.268;20.968;2023-12-22T05:42:11;5.30;99.90
17200;DHT22;8716;52.268;20.968;2023-12-22T05:44:39;5.30;99.90
17200;DHT22;8716;52.268;20.968;2023-12-22T05:47:09;5.40;99.90
17200;DHT22;8716;52.268;20.968;2023-12-22T05:49:41;5.30;99.90
17200;DHT22;8716;52.268;20.968;2023-12-22T05:52:09;5.30;99.90
17200;DHT22;8716;52.268;20.968;2023-12-22T05:54:38;5.30;99.90
17200;DHT22;8716;52.268;20.968;2023-12-22T05:57:06;5.30;99.90
17200;DHT22;8716;52.268;20.968;2023-12-22T05:59:35;5.30;99.90
17200;DHT22;8716;52.268;20.968;2023-12-22T06:02:03;5.20;99.90
17200;DHT22;8716;52.268;20.968;2023-12-22T06:04:33;5.30;99.90
17200;DHT22;8716;52.268;20.968;2023-12-22T06:07:02;5.20;99.90
17200;DHT22;8716;52.268;20.968;2023-12-22T06:09:31;5.20;99.90
17200;DHT22;8716;52.268;20.968;2023-12-22T06:11:59;5.10;99.90
17200;DHT22;8716;52.268;20.968;2023-12-22T06:14:28;5.10;99.90
17200;DHT22;8716;52.268;20.968;2023-12-22T06:16:57;5.20;99.90
17200;DHT22;8716;52.268;20.968;2023-12-22T06:19:25;5.10;99.90
17200;DHT22;8716;52.268;20.968;2023-12-22T06:21:57;5.20;99.90
17200;DHT22;8716;52.268;20.968;2023-12-22T06:24:27;5.20;99.90
17200;DHT22;8716;52.268;20.968;2023-12-22T06:26:55;5.30;99.90
17200;DHT22;8716;52.268;20.968;2023-12-22T06:29:23;5.30;99.90
17200;DHT22;8716;52.268;20.968;2023-12-22T06:31:55;5.30;99.90
17200;DHT22;8716;52.268;20.968;2023-12-22T06:34:23;5.40;99.90
17200;DHT22;8716;52.268;20.968;2023-12-22T06:36:53;5.40;99.90
17200;DHT22;8716;52.268;20.968;2023-12-22T06:39:24;5.40;99.90
17200;DHT22;8716;52.268;20.968;2023-12-22T06:41:55;5.50;99.90
17200;DHT22;8716;52.268;20.968;2023-12-22T06:44:23;5.50;99.90
17200;DHT22;8716;52.268;20.968;2023-12-22T06:46:54;5.60;99.90
17200;DHT22;8716;52.268;20.968;2023-12-22T06:49:23;5.50;99.90
17200;DHT22;8716;52.268;20.968;2023-12-22T06:51:53;5.50;99.90
17200;DHT22;8716;52.268;20.968;2023-12-22T06:54:25;5.50;99.90
17200;DHT22;8716;52.268;20.968;2023-12-22T06:56:53;5.50;99.90
17200;DHT22;8716;52.268;20.968;2023-12-22T06:59:21;5.50;99.90
17200;DHT22;8716;52.268;20.968;2023-12-22T07:01:52;5.60;99.90
17200;DHT22;8716;52.268;20.968;2023-12-22T07:04:39;5.60;99.90
17200;DHT22;8716;52.268;20.968;2023-12-22T07:07:26;5.60;99.90
17200;DHT22;8716;52.268;20.968;2023-12-22T07:10:02;5.70;99.90
17200;DHT22;8716;52.268;20.968;2023-12-22T07:12:31;5.50;99.90
17200;DHT22;8716;52.268;20.968;2023-12-22T07:14:59;5.60;99.90
17200;DHT22;8716;52.268;20.968;2023-12-22T07:17:28;5.60;99.90
17200;DHT22;8716;52.268;20.968;2023-12-22T07:19:56;5.60;99.90
17200;DHT22;8716;52.268;20.968;2023-12-22T07:22:25;5.70;99.90
17200;DHT22;8716;52.268;20.968;2023-12-22T07:24:55;5.70;99.90
17200;DHT22;8716;52.268;20.968;2023-12-22T07:27:27;5.60;99.90
17200;DHT22;8716;52.268;20.968;2023-12-22T07:29:55;5.70;99.90
17200;DHT22;8716;52.268;20.968;2023-12-22T07:32:25;5.60;99.90
17200;DHT22;8716;52.268;20.968;2023-12-22T07:34:54;5.60;99.90
17200;DHT22;8716;52.268;20.968;2023-12-22T07:37:24;5.60;99.90
17200;DHT22;8716;52.268;20.968;2023-12-22T07:39:56;5.60;99.90
17200;DHT22;8716;52.268;20.968;2023-12-22T07:42:25;5.60;99.90
17200;DHT22;8716;52.268;20.968;2023-12-22T07:44:55;5.60;99.90
17200;DHT22;8716;52.268;20.968;2023-12-22T07:47:29;5.60;99.90
17200;DHT22;8716;52.268;20.968;2023-12-22T07:50:02;5.60;99.90
17200;DHT22;8716;52.268;20.968;2023-12-22T07:52:33;5.70;99.90
17200;DHT22;8716;52.268;20.968;2023-12-22T07:55:07;5.80;99.90
17200;DHT22;8716;52.268;20.968;2023-12-22T07:57:38;5.70;99.90
17200;DHT22;8716;52.268;20.968;2023-12-22T08:00:07;5.70;99.90
17200;DHT22;8716;52.268;20.968;2023-12-22T08:02:39;5.70;99.90
17200;DHT22;8716;52.268;20.968;2023-12-22T08:05:08;5.80;99.90
17200;DHT22;8716;52.268;20.968;2023-12-22T08:07:36;5.80;99.90
17200;DHT22;8716;52.268;20.968;2023-12-22T08:10:07;5.80;99.90
17200;DHT22;8716;52.268;20.968;2023-12-22T08:12:36;5.80;99.90
17200;DHT22;8716;52.268;20.968;2023-12-22T08:15:05;5.80;99.90
17200;DHT22;8716;52.268;20.968;2023-12-22T08:17:34;5.80;99.90
17200;DHT22;8716;52.268;20.968;2023-12-22T08:20:03;5.90;99.90
17200;DHT22;8716;52.268;20.968;2023-12-22T08:22:46;6.00;99.90
17200;DHT22;8716;52.268;20.968;2023-12-22T08:25:18;6.00;99.90
17200;DHT22;8716;52.268;20.968;2023-12-22T08:27:48;6.10;99.90
17200;DHT22;8716;52.268;20.968;2023-12-22T08:30:17;6.20;99.90
17200;DHT22;8716;52.268;20.968;2023-12-22T08:32:45;6.30;99.90
17200;DHT22;8716;52.268;20.968;2023-12-22T08:35:14;6.40;99.90
17200;DHT22;8716;52.268;20.968;2023-12-22T08:37:46;6.50;99.90
17200;DHT22;8716;52.268;20.968;2023-12-22T08:40:15;6.50;99.90
17200;DHT22;8716;52.268;20.968;2023-12-22T08:42:44;6.70;99.90
17200;DHT22;8716;52.268;20.968;2023-12-22T08:45:13;6.80;99.90
17200;DHT22;8716;52.268;20.968;2023-12-22T08:47:42;7.10;99.90
17200;DHT22;8716;52.268;20.968;2023-12-22T08:50:10;7.50;99.90
17200;DHT22;8716;52.268;20.968;2023-12-22T08:52:40;8.00;99.90
17200;DHT22;8716;52.268;20.968;2023-12-22T08:55:08;8.50;99.90
17200;DHT22;8716;52.268;20.968;2023-12-22T08:57:36;8.90;99.90
17200;DHT22;8716;52.268;20.968;2023-12-22T09:00:17;9.30;99.90
17200;DHT22;8716;52.268;20.968;2023-12-22T09:02:45;9.70;99.90
17200;DHT22;8716;52.268;20.968;2023-12-22T09:05:14;9.90;99.90
17200;DHT22;8716;52.268;20.968;2023-12-22T09:07:42;10.30;99.90
17200;DHT22;8716;52.268;20.968;2023-12-22T09:10:11;10.50;99.90
17200;DHT22;8716;52.268;20.968;2023-12-22T09:12:40;10.70;99.90
17200;DHT22;8716;52.268;20.968;2023-12-22T09:15:10;10.70;99.90
17200;DHT22;8716;52.268;20.968;2023-12-22T09:17:41;10.60;99.90
17200;DHT22;8716;52.268;20.968;2023-12-22T09:20:11;10.50;99.90
17200;DHT22;8716;52.268;20.968;2023-12-22T09:22:40;10.30;99.90
17200;DHT22;8716;52.268;20.968;2023-12-22T09:25:08;10.50;99.90
17200;DHT22;8716;52.268;20.968;2023-12-22T09:27:37;10.90;99.90
17200;DHT22;8716;52.268;20.968;2023-12-22T09:30:06;11.50;99.90
17200;DHT22;8716;52.268;20.968;2023-12-22T09:32:35;12.20;99.90
17200;DHT22;8716;52.268;20.968;2023-12-22T09:35:05;12.80;99.90
17200;DHT22;8716;52.268;20.968;2023-12-22T09:37:38;13.10;99.90
17200;DHT22;8716;52.268;20.968;2023-12-22T09:40:07;13.40;99.90
17200;DHT22;8716;52.268;20.968;2023-12-22T09:42:40;13.50;99.90
17200;DHT22;8716;52.268;20.968;2023-12-22T09:45:11;13.30;99.90
17200;DHT22;8716;52.268;20.968;2023-12-22T09:47:41;13.00;99.90
17200;DHT22;8716;52.268;20.968;2023-12-22T09:50:12;13.00;99.90
17200;DHT22;8716;52.268;20.968;2023-12-22T09:52:43;12.50;99.90
17200;DHT22;8716;52.268;20.968;2023-12-22T09:55:13;11.90;99.90
17200;DHT22;8716;52.268;20.968;2023-12-22T09:57:42;11.30;99.90
17200;DHT22;8716;52.268;20.968;2023-12-22T10:00:11;10.70;99.90
17200;DHT22;8716;52.268;20.968;2023-12-22T10:02:44;10.10;99.90
17200;DHT22;8716;52.268;20.968;2023-12-22T10:05:14;9.70;99.90
17200;DHT22;8716;52.268;20.968;2023-12-22T10:07:46;9.20;99.90
17200;DHT22;8716;52.268;20.968;2023-12-22T10:10:16;9.00;99.90
17200;DHT22;8716;52.268;20.968;2023-12-22T10:12:45;8.70;99.90
17200;DHT22;8716;52.268;20.968;2023-12-22T10:15:14;8.40;99.90
17200;DHT22;8716;52.268;20.968;2023-12-22T10:17:45;8.00;99.90
17200;DHT22;8716;52.268;20.968;2023-12-22T10:20:17;7.40;99.90
17200;DHT22;8716;52.268;20.968;2023-12-22T10:22:45;6.90;99.90
17200;DHT22;8716;52.268;20.968;2023-12-22T10:25:14;6.50;99.90
17200;DHT22;8716;52.268;20.968;2023-12-22T10:27:43;6.30;99.90
17200;DHT22;8716;52.268;20.968;2023-12-22T10:30:14;6.00;99.90
17200;DHT22;8716;52.268;20.968;2023-12-22T10:32:44;5.70;99.90
17200;DHT22;8716;52.268;20.968;2023-12-22T10:35:13;5.20;99.90
17200;DHT22;8716;52.268;20.968;2023-12-22T10:37:45;4.80;99.90
17200;DHT22;8716;52.268;20.968;2023-12-22T10:40:14;4.40;99.90
17200;DHT22;8716;52.268;20.968;2023-12-22T10:42:43;4.10;99.90
17200;DHT22;8716;52.268;20.968;2023-12-22T10:45:11;3.80;99.90
17200;DHT22;8716;52.268;20.968;2023-12-22T10:47:40;3.60;99.90
17200;DHT22;8716;52.268;20.968;2023-12-22T10:50:12;3.40;99.90
17200;DHT22;8716;52.268;20.968;2023-12-22T10:52:42;3.10;99.90
17200;DHT22;8716;52.268;20.968;2023-12-22T10:55:18;3.00;99.90
17200;DHT22;8716;52.268;20.968;2023-12-22T10:57:47;2.90;99.90
17200;DHT22;8716;52.268;20.968;2023-12-22T11:00:21;2.60;99.90
17200;DHT22;8716;52.268;20.968;2023-12-22T11:02:56;2.60;99.90
17200;DHT22;8716;52.268;20.968;2023-12-22T11:05:48;2.50;99.90
17200;DHT22;8716;52.268;20.968;2023-12-22T11:08:19;2.50;99.90
17200;DHT22;8716;52.268;20.968;2023-12-22T11:10:57;2.50;99.90
17200;DHT22;8716;52.268;20.968;2023-12-22T11:13:27;2.70;99.90
17200;DHT22;8716;52.268;20.968;2023-12-22T11:15:57;2.70;99.90
17200;DHT22;8716;52.268;20.968;2023-12-22T11:18:27;2.80;99.90
17200;DHT22;8716;52.268;20.968;2023-12-22T11:20:57;2.90;99.90
17200;DHT22;8716;52.268;20.968;2023-12-22T11:23:26;3.10;99.90
17200;DHT22;8716;52.268;20.968;2023-12-22T11:25:59;3.10;99.90
17200;DHT22;8716;52.268;20.968;2023-12-22T11:28:31;3.30;99.90
17200;DHT22;8716;52.268;20.968;2023-12-22T11:31:01;3.30;99.90
17200;DHT22;8716;52.268;20.968;2023-12-22T11:33:31;3.30;99.90
17200;DHT22;8716;52.268;20.968;2023-12-22T11:36:01;3.40;99.90
17200;DHT22;8716;52.268;20.968;2023-12-22T11:38:33;3.50;99.90
17200;DHT22;8716;52.268;20.968;2023-12-22T11:41:06;3.50;99.90
17200;DHT22;8716;52.268;20.968;2023-12-22T11:43:38;3.50;99.90
17200;DHT22;8716;52.268;20.968;2023-12-22T11:46:08;3.50;99.90
17200;DHT22;8716;52.268;20.968;2023-12-22T11:48:37;3.40;99.90
17200;DHT22;8716;52.268;20.968;2023-12-22T11:51:12;3.40;99.90
17200;DHT22;8716;52.268;20.968;2023-12-22T11:53:41;3.40;99.90
17200;DHT22;8716;52.268;20.968;2023-12-22T11:56:12;3.40;99.90
17200;DHT22;8716;52.268;20.968;2023-12-22T11:58:44;3.30;99.90
17200;DHT22;8716;52.268;20.968;2023-12-22T12:01:20;3.30;99.90
17200;DHT22;8716;52.268;20.968;2023-12-22T12:03:51;3.20;99.90
17200;DHT22;8716;52.268;20.968;2023-12-22T12:06:31;3.20;99.90
17200;DHT22;8716;52.268;20.968;2023-12-22T12:09:04;3.30;99.90
17200;DHT22;8716;52.268;20.968;2023-12-22T12:12:12;3.40;99.90
17200;DHT22;8716;52.268;20.968;2023-12-22T12:14:42;3.30;99.90
17200;DHT22;8716;52.268;20.968;2023-12-22T12:17:11;3.20;99.90
17200;DHT22;8716;52.268;20.968;2023-12-22T12:19:39;3.20;99.90
17200;DHT22;8716;52.268;20.968;2023-12-22T12:22:11;3.20;99.90
17200;DHT22;8716;52.268;20.968;2023-12-22T12:24:41;3.20;99.90
17200;DHT22;8716;52.268;20.968;2023-12-22T12:27:11;3.20;99.90
17200;DHT22;8716;52.268;20.968;2023-12-22T12:29:45;3.30;99.90
17200;DHT22;8716;52.268;20.968;2023-12-22T12:32:14;3.40;99.90
17200;DHT22;8716;52.268;20.968;2023-12-22T12:34:43;3.30;99.90
17200;DHT22;8716;52.268;20.968;2023-12-22T12:37:12;3.40;99.90
17200;DHT22;8716;52.268;20.968;2023-12-22T12:39:41;3.50;99.90
17200;DHT22;8716;52.268;20.968;2023-12-22T12:42:15;3.40;99.90
17200;DHT22;8716;52.268;20.968;2023-12-22T12:44:44;3.30;99.90
17200;DHT22;8716;52.268;20.968;2023-12-22T12:47:15;3.40;99.90
17200;DHT22;8716;52.268;20.968;2023-12-22T12:49:44;3.40;99.90
17200;DHT22;8716;52.268;20.968;2023-12-22T12:52:13;3.40;99.90
17200;DHT22;8716;52.268;20.968;2023-12-22T12:54:42;3.30;99.90
17200;DHT22;8716;52.268;20.968;2023-12-22T12:57:15;3.30;99.90
17200;DHT22;8716;52.268;20.968;2023-12-22T12:59:45;3.30;99.90
17200;DHT22;8716;52.268;20.968;2023-12-22T13:02:15;3.30;99.90
17200;DHT22;8716;52.268;20.968;2023-12-22T13:04:44;3.30;99.90
17200;DHT22;8716;52.268;20.968;2023-12-22T13:07:13;3.30;99.90
17200;DHT22;8716;52.268;20.968;2023-12-22T13:09:42;3.40;99.90
17200;DHT22;8716;52.268;20.968;2023-12-22T13:12:11;3.30;99.90
17200;DHT22;8716;52.268;20.968;2023-12-22T13:14:41;3.30;99.90
17200;DHT22;8716;52.268;20.968;2023-12-22T13:17:19;3.30;99.90
17200;DHT22;8716;52.268;20.968;2023-12-22T13:19:54;3.20;99.90
17200;DHT22;8716;52.268;20.968;2023-12-22T13:22:22;3.20;99.90
17200;DHT22;8716;52.268;20.968;2023-12-22T13:24:55;3.30;99.90
17200;DHT22;8716;52.268;20.968;2023-12-22T13:27:24;3.30;99.90
17200;DHT22;8716;52.268;20.968;2023-12-22T13:29:54;3.20;99.90
17200;DHT22;8716;52.268;20.968;2023-12-22T13:32:22;3.10;99.90
17200;DHT22;8716;52.268;20.968;2023-12-22T13:34:53;3.10;99.90
17200;DHT22;8716;52.268;20.968;2023-12-22T13:37:22;3.10;99.90
17200;DHT22;8716;52.268;20.968;2023-12-22T13:39:53;3.10;99.90
17200;DHT22;8716;52.268;20.968;2023-12-22T13:42:22;3.10;99.90
17200;DHT22;8716;52.268;20.968;2023-12-22T13:44:51;3.10;99.90
17200;DHT22;8716;52.268;20.968;2023-12-22T13:47:21;3.00;99.90
17200;DHT22;8716;52.268;20.968;2023-12-22T13:49:54;3.00;99.90
17200;DHT22;8716;52.268;20.968;2023-12-22T13:52:30;3.00;99.90
17200;DHT22;8716;52.268;20.968;2023-12-22T13:55:00;3.00;99.90
17200;DHT22;8716;52.268;20.968;2023-12-22T13:57:29;3.00;99.90
17200;DHT22;8716;52.268;20.968;2023-12-22T13:59:58;3.00;99.90
17200;DHT22;8716;52.268;20.968;2023-12-22T14:02:32;2.90;99.90
17200;DHT22;8716;52.268;20.968;2023-12-22T14:05:00;2.90;99.90
17200;DHT22;8716;52.268;20.968;2023-12-22T14:07:29;2.90;99.90
17200;DHT22;8716;52.268;20.968;2023-12-22T14:10:04;2.80;99.90
17200;DHT22;8716;52.268;20.968;2023-12-22T14:12:32;3.00;99.90
17200;DHT22;8716;52.268;20.968;2023-12-22T14:15:07;2.80;99.90
17200;DHT22;8716;52.268;20.968;2023-12-22T14:17:39;2.80;99.90
17200;DHT22;8716;52.268;20.968;2023-12-22T14:20:09;2.80;99.90
17200;DHT22;8716;52.268;20.968;2023-12-22T14:22:40;2.80;99.90
17200;DHT22;8716;52.268;20.968;2023-12-22T14:25:08;2.80;99.90
17200;DHT22;8716;52.268;20.968;2023-12-22T14:27:37;2.90;99.90
17200;DHT22;8716;52.268;20.968;2023-12-22T14:30:06;2.90;99.90
17200;DHT22;8716;52.268;20.968;2023-12-22T14:32:35;2.90;99.90
17200;DHT22;8716;52.268;20.968;2023-12-22T14:35:07;2.90;99.90
17200;DHT22;8716;52.268;20.968;2023-12-22T14:37:35;2.90;99.90
17200;DHT22;8716;52.268;20.968;2023-12-22T14:40:05;2.90;99.90
17200;DHT22;8716;52.268;20.968;2023-12-22T14:42:33;2.80;99.90
17200;DHT22;8716;52.268;20.968;2023-12-22T14:45:03;2.80;99.90
17200;DHT22;8716;52.268;20.968;2023-12-22T14:47:31;2.70;99.90
17200;DHT22;8716;52.268;20.968;2023-12-22T14:50:01;2.60;99.90
17200;DHT22;8716;52.268;20.968;2023-12-22T14:52:33;2.70;99.90
17200;DHT22;8716;52.268;20.968;2023-12-22T14:55:02;2.70;99.90
17200;DHT22;8716;52.268;20.968;2023-12-22T14:57:31;2.80;99.90
17200;DHT22;8716;52.268;20.968;2023-12-22T15:00:00;2.80;99.90
17200;DHT22;8716;52.268;20.968;2023-12-22T15:02:29;2.70;99.90
17200;DHT22;8716;52.268;20.968;2023-12-22T15:04:57;2.80;99.90
17200;DHT22;8716;52.268;20.968;2023-12-22T15:07:27;2.80;99.90
17200;DHT22;8716;52.268;20.968;2023-12-22T15:09:57;2.70;99.90
17200;DHT22;8716;52.268;20.968;2023-12-22T15:12:25;2.80;99.90
17200;DHT22;8716;52.268;20.968;2023-12-22T15:14:56;2.60;99.90
17200;DHT22;8716;52.268;20.968;2023-12-22T15:17:24;2.80;99.90
17200;DHT22;8716;52.268;20.968;2023-12-22T15:19:55;2.70;99.90
17200;DHT22;8716;52.268;20.968;2023-12-22T15:22:23;2.80;99.90
17200;DHT22;8716;52.268;20.968;2023-12-22T15:24:52;2.80;99.90
17200;DHT22;8716;52.268;20.968;2023-12-22T15:27:21;2.90;99.90
17200;DHT22;8716;52.268;20.968;2023-12-22T15:29:50;2.70;99.90
17200;DHT22;8716;52.268;20.968;2023-12-22T15:32:19;2.70;99.90
17200;DHT22;8716;52.268;20.968;2023-12-22T15:34:47;2.80;99.90
17200;DHT22;8716;52.268;20.968;2023-12-22T15:37:16;2.80;99.90
17200;DHT22;8716;52.268;20.968;2023-12-22T15:39:45;2.70;99.90
17200;DHT22;8716;52.268;20.968;2023-12-22T15:42:14;2.70;99.90
17200;DHT22;8716;52.268;20.968;2023-12-22T15:44:43;2.70;99.90
17200;DHT22;8716;52.268;20.968;2023-12-22T15:47:12;2.70;99.90
17200;DHT22;8716;52.268;20.968;2023-12-22T15:49:40;2.60;99.90
17200;DHT22;8716;52.268;20.968;2023-12-22T15:52:10;2.70;99.90
17200;DHT22;8716;52.268;20.968;2023-12-22T15:54:39;2.70;99.90
17200;DHT22;8716;52.268;20.968;2023-12-22T15:57:10;2.60;99.90
17200;DHT22;8716;52.268;20.968;2023-12-22T15:59:38;2.70;99.90
17200;DHT22;8716;52.268;20.968;2023-12-22T16:02:10;2.70;99.90